Time;durP1;ratioP1;P1;durP2;ratioP2;P2;SDS_P1;SDS_P2;PMS_P1;PMS_P2;Temp;Humidity;BMP_temperature;BMP_pressure;BME280_temperature;BME280_humidity;BME280_pressure;Samples;Min_cycle;Max_cycle;Signal;HPM_P1;HPM_P2
2022/04/03 00:00:19;;;;;;;13.48;10.75;;;3.50;90.50;;;;;;7376987;19;20140;-70
2022/04/03 00:02:48;;;;;;;12.05;9.35;;;3.40;90.10;;;;;;7379739;19;20143;-71
2022/04/03 00:05:18;;;;;;;13.85;10.05;;;3.50;91.50;;;;;;7378553;19;20140;-71
2022/04/03 00:07:51;;;;;;;11.13;9.80;;;3.50;91.40;;;;;;7376586;19;20168;-70
2022/04/03 00:10:23;;;;;;;17.02;9.75;;;3.50;90.10;;;;;;7376789;19;20150;-71
2022/04/03 00:12:52;;;;;;;13.85;9.95;;;3.40;90.20;;;;;;7378253;19;20135;-71
2022/04/03 00:15:22;;;;;;;14.15;10.60;;;3.30;91.00;;;;;;7372301;19;20487;-71
2022/04/03 00:17:51;;;;;;;13.85;9.90;;;3.30;91.80;;;;;;7384294;19;20157;-71
2022/04/03 00:20:21;;;;;;;13.77;9.55;;;3.30;90.40;;;;;;7377578;19;20166;-71
2022/04/03 00:22:53;;;;;;;10.73;8.43;;;3.30;91.00;;;;;;7377544;19;20375;-71
2022/04/03 00:25:25;;;;;;;16.88;10.13;;;3.30;91.50;;;;;;7379788;19;20665;-71
2022/04/03 00:27:54;;;;;;;11.25;9.02;;;3.40;91.70;;;;;;7381397;19;20173;-71
2022/04/03 00:30:24;;;;;;;13.55;10.73;;;3.30;90.40;;;;;;7374217;19;20178;-71
2022/04/03 00:32:56;;;;;;;12.85;10.25;;;3.20;90.60;;;;;;7379056;19;20151;-71
2022/04/03 00:35:30;;;;;;;12.10;9.43;;;3.30;91.30;;;;;;7378673;19;20123;-71
2022/04/03 00:38:05;;;;;;;13.05;9.63;;;3.40;91.70;;;;;;7377868;19;20135;-71
2022/04/03 00:40:39;;;;;;;13.95;10.00;;;3.40;91.50;;;;;;7371706;19;20135;-71
2022/04/03 00:43:11;;;;;;;13.93;10.15;;;3.30;90.40;;;;;;7377378;19;20139;-71
2022/04/03 00:45:44;;;;;;;14.75;11.15;;;3.30;90.20;;;;;;7369367;19;20214;-71
2022/04/03 00:48:17;;;;;;;12.88;10.73;;;3.10;89.60;;;;;;7378194;19;20595;-71
2022/04/03 00:50:46;;;;;;;15.63;10.23;;;3.20;91.00;;;;;;7371017;19;20140;-71
2022/04/03 00:53:19;;;;;;;13.13;10.57;;;3.20;90.70;;;;;;7378037;19;20136;-71
2022/04/03 00:55:53;;;;;;;11.63;9.48;;;3.30;91.10;;;;;;7379520;19;20158;-71
2022/04/03 00:58:25;;;;;;;14.82;9.95;;;3.40;90.60;;;;;;7375855;19;20142;-72
2022/04/03 01:01:00;;;;;;;16.27;9.88;;;3.40;90.60;;;;;;7374931;19;20131;-72
2022/04/03 01:03:32;;;;;;;18.05;10.90;;;3.50;91.20;;;;;;7376867;19;20143;-71
2022/04/03 01:06:05;;;;;;;14.32;10.10;;;3.50;90.70;;;;;;7379563;19;20223;-71
2022/04/03 01:08:42;;;;;;;12.10;9.27;;;3.50;89.30;;;;;;7377541;19;20147;-71
2022/04/03 01:11:12;;;;;;;16.15;10.55;;;3.50;90.10;;;;;;7375627;19;20187;-71
2022/04/03 01:13:48;;;;;;;17.13;10.00;;;3.50;90.30;;;;;;7363425;19;20142;-71
2022/04/03 01:16:18;;;;;;;13.38;10.25;;;3.50;88.90;;;;;;7359285;19;20135;-72
2022/04/03 01:18:53;;;;;;;13.40;10.20;;;3.40;89.90;;;;;;7374361;19;20135;-72
2022/04/03 01:21:24;;;;;;;14.85;10.60;;;3.50;90.90;;;;;;7372289;19;21019;-75
2022/04/03 01:23:57;;;;;;;16.13;12.50;;;3.60;90.40;;;;;;7374513;19;20143;-71
2022/04/03 01:26:29;;;;;;;13.70;11.10;;;3.40;88.60;;;;;;7372083;19;20136;-71
2022/04/03 01:28:58;;;;;;;18.45;10.98;;;3.50;90.80;;;;;;7349992;19;20151;-71
2022/04/03 01:31:30;;;;;;;16.38;11.27;;;3.50;89.90;;;;;;7367995;19;20143;-71
2022/04/03 01:34:02;;;;;;;18.02;11.20;;;3.40;90.10;;;;;;7374363;19;20128;-71
2022/04/03 01:36:33;;;;;;;14.90;10.88;;;3.40;89.30;;;;;;7375235;19;20131;-71
2022/04/03 01:39:03;;;;;;;15.20;10.98;;;3.40;90.30;;;;;;7378928;19;20162;-71
2022/04/03 01:41:35;;;;;;;16.05;10.90;;;3.50;91.40;;;;;;7377686;19;20203;-71
2022/04/03 01:44:05;;;;;;;17.30;11.68;;;3.60;90.90;;;;;;7374993;19;20135;-71
2022/04/03 01:46:34;;;;;;;17.90;12.52;;;3.70;90.60;;;;;;7375855;19;20150;-71
2022/04/03 01:49:04;;;;;;;17.65;11.23;;;3.80;89.80;;;;;;7370933;19;20508;-71
2022/04/03 01:51:37;;;;;;;15.27;11.23;;;3.70;88.40;;;;;;7375292;19;20141;-71
2022/04/03 01:54:07;;;;;;;16.35;10.95;;;3.60;90.00;;;;;;7373260;19;20171;-71
2022/04/03 01:56:41;;;;;;;16.05;11.05;;;3.70;90.10;;;;;;7372320;19;20174;-71
2022/04/03 01:59:17;;;;;;;13.07;10.77;;;3.70;89.30;;;;;;7377523;19;20135;-71
2022/04/03 02:01:48;;;;;;;13.90;10.00;;;3.60;87.70;;;;;;7377952;19;20154;-71
2022/04/03 02:04:20;;;;;;;13.60;10.80;;;3.60;89.20;;;;;;7383484;19;20131;-71
2022/04/03 02:06:52;;;;;;;11.30;9.48;;;3.60;89.80;;;;;;7384024;19;20665;-71
2022/04/03 02:09:24;;;;;;;13.27;8.93;;;3.60;88.60;;;;;;7387010;19;20138;-71
2022/04/03 02:11:57;;;;;;;14.90;9.02;;;3.50;86.80;;;;;;7382699;19;20614;-71
2022/04/03 02:14:27;;;;;;;13.82;9.50;;;3.40;88.30;;;;;;7377593;19;20135;-71
2022/04/03 02:17:00;;;;;;;13.43;10.20;;;3.40;89.00;;;;;;7380774;19;20596;-71
2022/04/03 02:19:29;;;;;;;14.65;10.23;;;3.40;88.30;;;;;;7378184;19;20136;-71
2022/04/03 02:21:59;;;;;;;11.93;9.00;;;3.40;88.70;;;;;;7381967;19;20132;-71
2022/04/03 02:24:31;;;;;;;16.38;10.15;;;3.40;88.50;;;;;;7382962;19;20148;-71
2022/04/03 02:27:03;;;;;;;14.57;9.55;;;3.40;88.60;;;;;;7383601;19;20132;-71
2022/04/03 02:29:32;;;;;;;14.80;10.88;;;3.40;90.00;;;;;;7381902;19;20143;-70
2022/04/03 02:32:07;;;;;;;16.65;10.00;;;3.50;90.00;;;;;;7379138;19;20251;-71
2022/04/03 02:34:37;;;;;;;13.10;10.15;;;3.50;89.30;;;;;;7379135;19;20148;-71
2022/04/03 02:37:06;;;;;;;13.10;9.45;;;3.40;87.30;;;;;;7383996;19;20132;-71
2022/04/03 02:39:36;;;;;;;13.73;8.85;;;3.40;87.20;;;;;;7379170;19;20224;-70
2022/04/03 02:42:09;;;;;;;14.23;10.68;;;3.40;87.40;;;;;;7377765;19;20181;-71
2022/04/03 02:44:38;;;;;;;18.40;11.10;;;3.40;88.40;;;;;;7382209;19;20169;-71
2022/04/03 02:47:11;;;;;;;13.98;10.88;;;3.50;88.80;;;;;;7379314;19;20145;-71
2022/04/03 02:49:42;;;;;;;14.38;10.45;;;3.60;89.10;;;;;;7379605;19;20673;-71
2022/04/03 02:52:12;;;;;;;13.50;9.93;;;3.60;87.70;;;;;;7381764;19;20194;-71
2022/04/03 02:54:42;;;;;;;14.18;8.90;;;3.60;89.50;;;;;;7385000;19;20140;-71
2022/04/03 02:57:14;;;;;;;10.90;9.38;;;3.70;89.30;;;;;;7381830;19;20768;-71
2022/04/03 02:59:47;;;;;;;12.48;9.00;;;3.70;85.90;;;;;;7383775;19;20142;-71
2022/04/03 03:02:16;;;;;;;16.08;10.23;;;3.70;87.90;;;;;;7382625;19;20127;-71
2022/04/03 03:04:46;;;;;;;13.88;9.65;;;3.70;87.20;;;;;;7379452;19;20211;-71
2022/04/03 03:07:16;;;;;;;13.50;9.82;;;3.70;87.50;;;;;;7379424;19;20135;-71
2022/04/03 03:09:48;;;;;;;15.27;10.05;;;3.70;85.70;;;;;;7381529;19;20638;-71
2022/04/03 03:12:21;;;;;;;18.33;10.95;;;3.50;85.90;;;;;;7372983;19;20159;-71
2022/04/03 03:14:53;;;;;;;13.25;9.35;;;3.40;86.10;;;;;;7377728;19;20554;-73
2022/04/03 03:17:22;;;;;;;12.63;9.75;;;3.50;86.50;;;;;;7380020;19;20163;-71
2022/04/03 03:19:52;;;;;;;15.30;9.50;;;3.60;86.00;;;;;;7379199;19;20164;-71
2022/04/03 03:22:22;;;;;;;17.27;10.95;;;3.50;85.00;;;;;;7372032;19;20224;-71
2022/04/03 03:24:54;;;;;;;15.55;9.90;;;3.50;84.70;;;;;;7380389;19;20132;-70
2022/04/03 03:27:26;;;;;;;15.88;10.20;;;3.50;86.30;;;;;;7375185;19;20140;-71
2022/04/03 03:29:58;;;;;;;13.63;10.00;;;3.60;87.10;;;;;;7376271;19;20198;-71
2022/04/03 03:32:30;;;;;;;13.07;9.55;;;3.60;87.40;;;;;;7363055;19;20132;-71
2022/04/03 03:34:59;;;;;;;10.55;8.10;;;3.70;86.60;;;;;;7380444;19;20506;-71
2022/04/03 03:37:29;;;;;;;12.88;10.02;;;3.70;86.10;;;;;;7383716;19;20145;-71
2022/04/03 03:40:03;;;;;;;12.82;9.98;;;3.70;86.60;;;;;;7372508;19;20144;-71
2022/04/03 03:42:38;;;;;;;13.10;9.35;;;3.80;86.70;;;;;;7380395;19;20155;-70
2022/04/03 03:45:08;;;;;;;14.23;9.90;;;3.70;85.40;;;;;;7374042;19;20830;-72
2022/04/03 03:47:40;;;;;;;12.70;9.05;;;3.70;86.10;;;;;;7370071;19;20602;-71
2022/04/03 03:50:10;;;;;;;14.95;10.35;;;3.50;84.80;;;;;;7376891;19;20131;-71
2022/04/03 03:52:43;;;;;;;11.80;10.05;;;3.50;84.70;;;;;;7373446;19;20606;-71
2022/04/03 03:55:13;;;;;;;13.38;9.15;;;3.40;84.80;;;;;;7380060;19;20545;-71
2022/04/03 03:57:46;;;;;;;13.05;9.70;;;3.40;86.80;;;;;;7380805;19;20160;-71
2022/04/03 04:00:18;;;;;;;14.77;10.10;;;3.40;86.30;;;;;;7378975;19;20139;-70
2022/04/03 04:02:48;;;;;;;13.20;9.90;;;3.40;86.20;;;;;;7373159;19;20131;-70
2022/04/03 04:05:20;;;;;;;14.27;10.32;;;3.30;85.70;;;;;;7376971;19;20151;-70
2022/04/03 04:07:50;;;;;;;16.40;11.18;;;3.40;87.20;;;;;;7379543;19;20147;-70
2022/04/03 04:10:19;;;;;;;18.13;11.35;;;3.40;84.50;;;;;;7380750;19;20135;-71
2022/04/03 04:12:51;;;;;;;13.43;9.70;;;3.40;84.90;;;;;;7379801;19;20131;-71
2022/04/03 04:15:21;;;;;;;16.80;10.52;;;3.40;84.20;;;;;;7376535;19;20144;-70
2022/04/03 04:17:51;;;;;;;12.70;9.75;;;3.50;85.20;;;;;;7376694;19;20732;-71
2022/04/03 04:20:21;;;;;;;18.10;10.23;;;3.40;86.50;;;;;;7379710;19;20127;-71
2022/04/03 04:22:52;;;;;;;12.50;9.48;;;3.50;84.90;;;;;;7379443;19;20142;-71
2022/04/03 04:25:22;;;;;;;11.00;9.02;;;3.50;84.70;;;;;;7381340;19;20143;-70
2022/04/03 04:27:55;;;;;;;12.38;9.55;;;3.50;85.40;;;;;;7381015;19;20916;-70
2022/04/03 04:30:24;;;;;;;12.85;9.90;;;3.50;84.60;;;;;;7379590;19;20161;-70
2022/04/03 04:32:56;;;;;;;13.02;9.90;;;3.50;85.10;;;;;;7376329;19;20136;-71
2022/04/03 04:35:28;;;;;;;12.25;9.52;;;3.50;85.70;;;;;;7380176;19;20674;-71
2022/04/03 04:37:59;;;;;;;13.55;9.88;;;3.50;84.60;;;;;;7381909;19;20625;-71
2022/04/03 04:40:34;;;;;;;12.25;9.27;;;3.50;85.40;;;;;;7378938;19;20163;-71
2022/04/03 04:43:08;;;;;;;12.95;10.40;;;3.50;84.40;;;;;;7376798;19;20177;-70
2022/04/03 04:45:40;;;;;;;14.45;9.50;;;3.50;84.80;;;;;;7366465;19;20142;-71
2022/04/03 04:48:30;;;;;;;13.02;9.02;;;3.40;83.40;;;;;;7367590;19;20176;-71
2022/04/03 04:51:01;;;;;;;10.93;8.77;;;3.40;84.90;;;;;;7363267;19;20146;-70
2022/04/03 04:53:34;;;;;;;13.07;8.70;;;3.40;82.90;;;;;;7372995;19;20131;-70
2022/04/03 04:56:03;;;;;;;12.13;9.32;;;3.30;83.50;;;;;;7376152;19;20162;-71
2022/04/03 04:58:37;;;;;;;14.65;9.57;;;3.30;84.10;;;;;;7373880;19;20140;-72
2022/04/03 05:01:07;;;;;;;14.18;8.40;;;3.30;84.30;;;;;;7375677;19;20244;-70
2022/04/03 05:03:36;;;;;;;12.65;9.65;;;3.20;84.00;;;;;;7373137;19;20147;-70
2022/04/03 05:06:15;;;;;;;12.85;7.90;;;3.20;83.90;;;;;;7375128;19;20126;-70
2022/04/03 05:08:48;;;;;;;12.52;9.85;;;3.20;85.10;;;;;;7378748;19;20158;-70
2022/04/03 05:11:18;;;;;;;13.48;8.07;;;3.20;85.50;;;;;;7373632;19;20155;-70
2022/04/03 05:13:50;;;;;;;13.88;8.88;;;3.30;85.40;;;;;;7373827;19;20499;-70
2022/04/03 05:16:20;;;;;;;12.07;8.82;;;3.30;84.50;;;;;;7380685;19;20138;-71
2022/04/03 05:18:54;;;;;;;10.27;8.00;;;3.20;84.00;;;;;;7373789;19;20134;-71
2022/04/03 05:21:29;;;;;;;12.18;8.15;;;3.20;84.10;;;;;;7376454;19;20131;-71
2022/04/03 05:23:58;;;;;;;13.40;8.52;;;3.20;83.60;;;;;;7381321;19;20123;-70
2022/04/03 05:26:30;;;;;;;13.15;9.55;;;3.30;83.60;;;;;;7374791;19;20192;-70
2022/04/03 05:29:04;;;;;;;11.45;8.18;;;3.20;82.50;;;;;;7367970;19;20135;-70
2022/04/03 05:31:33;;;;;;;13.07;9.18;;;3.20;82.70;;;;;;7366774;19;20157;-69
2022/04/03 05:34:06;;;;;;;12.27;8.93;;;3.30;84.60;;;;;;7373445;19;20171;-70
2022/04/03 05:36:38;;;;;;;14.30;7.97;;;3.40;83.90;;;;;;7375288;19;20653;-70
2022/04/03 05:39:10;;;;;;;10.73;8.55;;;3.30;83.00;;;;;;7377971;19;20504;-71
2022/04/03 05:41:41;;;;;;;14.20;9.25;;;3.40;84.70;;;;;;7371700;19;20135;-71
2022/04/03 05:44:13;;;;;;;12.70;8.70;;;3.40;84.10;;;;;;7372837;19;20135;-71
2022/04/03 05:46:43;;;;;;;12.13;8.30;;;3.50;84.80;;;;;;7371187;19;20223;-70
2022/04/03 05:49:12;;;;;;;10.50;8.07;;;3.50;82.70;;;;;;7368853;19;20139;-71
2022/04/03 05:51:42;;;;;;;10.32;8.68;;;3.50;84.50;;;;;;7365828;19;20677;-73
2022/04/03 05:54:12;;;;;;;12.63;7.95;;;3.60;83.40;;;;;;7372539;19;20143;-71
2022/04/03 05:56:41;;;;;;;11.27;8.63;;;3.50;82.00;;;;;;7370155;19;20226;-72
2022/04/03 05:59:13;;;;;;;8.80;7.65;;;3.70;82.00;;;;;;7364310;19;20243;-71
2022/04/03 06:01:43;;;;;;;11.77;7.47;;;3.70;81.90;;;;;;7370365;19;21390;-71
2022/04/03 06:04:12;;;;;;;9.18;7.65;;;3.70;81.10;;;;;;7356441;19;20136;-71
2022/04/03 06:06:44;;;;;;;13.20;7.47;;;3.70;81.50;;;;;;7360650;19;20199;-71
2022/04/03 06:09:16;;;;;;;9.18;7.22;;;3.80;80.30;;;;;;7364577;19;20139;-71
2022/04/03 06:11:45;;;;;;;10.18;7.28;;;3.80;80.30;;;;;;7367687;19;20143;-73
2022/04/03 06:14:20;;;;;;;12.25;7.00;;;3.70;78.90;;;;;;7361181;19;20209;-73
2022/04/03 06:16:49;;;;;;;13.13;7.63;;;3.70;80.90;;;;;;7376066;19;20135;-73
2022/04/03 06:19:18;;;;;;;10.50;7.70;;;3.90;80.90;;;;;;7369554;19;20131;-71
2022/04/03 06:21:48;;;;;;;9.43;6.65;;;3.80;78.40;;;;;;7356023;19;20128;-72
2022/04/03 06:24:18;;;;;;;9.13;6.70;;;3.90;78.30;;;;;;7370191;19;20231;-72
2022/04/03 06:26:50;;;;;;;10.35;7.65;;;4.00;78.80;;;;;;7365912;19;20171;-71
2022/04/03 06:29:22;;;;;;;7.95;6.55;;;4.00;78.30;;;;;;7370939;19;20140;-71
2022/04/03 06:31:52;;;;;;;8.70;7.38;;;4.10;77.00;;;;;;7363854;19;20500;-72
2022/04/03 06:34:21;;;;;;;8.65;6.97;;;4.00;77.00;;;;;;7367831;19;20148;-71
2022/04/03 06:36:51;;;;;;;8.10;7.13;;;3.90;76.00;;;;;;7359252;19;20135;-70
2022/04/03 06:39:23;;;;;;;13.00;7.70;;;3.90;77.40;;;;;;7361036;19;21639;-71
2022/04/03 06:41:55;;;;;;;9.45;6.53;;;3.80;77.60;;;;;;7375959;19;20256;-71
2022/04/03 06:44:32;;;;;;;10.20;6.10;;;3.90;76.20;;;;;;7371678;19;20513;-71
2022/04/03 06:47:02;;;;;;;12.02;8.60;;;3.80;75.60;;;;;;7371274;19;20151;-71
2022/04/03 06:49:35;;;;;;;12.35;8.48;;;3.90;75.80;;;;;;7372104;19;20649;-71
2022/04/03 06:52:10;;;;;;;8.60;6.43;;;4.00;76.70;;;;;;7377841;19;20610;-71
2022/04/03 06:54:42;;;;;;;11.40;7.70;;;4.10;76.00;;;;;;7376282;19;20639;-71
2022/04/03 06:57:14;;;;;;;9.80;6.28;;;4.20;75.40;;;;;;7370291;19;20162;-70
2022/04/03 06:59:50;;;;;;;7.85;5.63;;;4.30;73.70;;;;;;7375619;19;20613;-71
2022/04/03 07:02:20;;;;;;;12.27;8.13;;;4.30;73.80;;;;;;7364976;19;20135;-71
2022/04/03 07:04:52;;;;;;;8.05;6.07;;;4.40;75.60;;;;;;7380030;19;20149;-71
2022/04/03 07:07:25;;;;;;;7.93;6.40;;;4.50;73.70;;;;;;7384976;19;21076;-71
2022/04/03 07:09:57;;;;;;;8.60;6.18;;;4.30;72.60;;;;;;7384190;19;20146;-71
2022/04/03 07:12:26;;;;;;;9.43;6.00;;;4.40;74.10;;;;;;7372318;19;20151;-69
2022/04/03 07:15:01;;;;;;;12.10;7.35;;;4.60;75.20;;;;;;7374907;19;20132;-70
2022/04/03 07:17:34;;;;;;;9.15;6.72;;;4.90;74.90;;;;;;7379547;19;20228;-70
2022/04/03 07:20:05;;;;;;;9.63;6.18;;;5.00;72.90;;;;;;7384701;19;20177;-70
2022/04/03 07:22:43;;;;;;;7.85;5.88;;;5.40;71.50;;;;;;7368800;19;20142;-73
2022/04/03 07:25:14;;;;;;;9.18;6.47;;;5.40;69.60;;;;;;7379066;19;20132;-73
2022/04/03 07:27:45;;;;;;;7.47;6.00;;;5.50;69.10;;;;;;7378232;19;20143;-70
2022/04/03 07:30:17;;;;;;;7.38;5.90;;;5.70;69.90;;;;;;7377022;19;20139;-70
2022/04/03 07:33:00;;;;;;;8.13;6.22;;;5.80;66.60;;;;;;7366421;19;20257;-71
2022/04/03 07:35:32;;;;;;;9.77;6.60;;;5.60;65.30;;;;;;7367825;19;20135;-70
2022/04/03 07:38:02;;;;;;;7.43;5.80;;;5.60;68.30;;;;;;7381396;19;20159;-70
2022/04/03 07:40:34;;;;;;;10.32;6.15;;;5.60;69.60;;;;;;7370818;19;20134;-70
2022/04/03 07:43:04;;;;;;;6.65;5.93;;;5.70;68.70;;;;;;7367849;19;20674;-73
2022/04/03 07:45:36;;;;;;;7.97;6.03;;;5.70;68.10;;;;;;7375370;19;20207;-72
2022/04/03 07:48:06;;;;;;;7.38;6.45;;;5.90;65.60;;;;;;7374758;19;20147;-71
2022/04/03 07:50:39;;;;;;;5.93;5.25;;;6.00;65.80;;;;;;7378742;19;20143;-72
2022/04/03 07:53:08;;;;;;;9.35;6.53;;;6.00;65.20;;;;;;7365538;19;20173;-70
2022/04/03 07:55:40;;;;;;;8.00;5.72;;;5.90;63.00;;;;;;7378919;19;20152;-70
2022/04/03 07:58:15;;;;;;;6.75;5.70;;;5.90;66.60;;;;;;7360188;19;20588;-70
2022/04/03 08:00:49;;;;;;;7.00;6.13;;;6.10;66.50;;;;;;7369514;19;20173;-70
2022/04/03 08:03:18;;;;;;;6.00;5.03;;;6.00;63.70;;;;;;7372898;19;20124;-70
2022/04/03 08:05:48;;;;;;;6.57;5.47;;;5.90;63.80;;;;;;7377683;19;20673;-70
2022/04/03 08:08:17;;;;;;;7.18;6.07;;;5.70;62.40;;;;;;7371672;19;20693;-70
2022/04/03 08:10:49;;;;;;;7.13;5.47;;;5.50;63.30;;;;;;7371435;19;20150;-70
2022/04/03 08:13:23;;;;;;;8.38;6.40;;;5.70;64.90;;;;;;7378669;19;20146;-71
2022/04/03 08:15:55;;;;;;;6.95;5.20;;;5.70;66.70;;;;;;7370984;19;20162;-70
2022/04/03 08:18:27;;;;;;;7.03;5.25;;;5.90;63.40;;;;;;7368339;19;20134;-70
2022/04/03 08:21:01;;;;;;;8.05;5.68;;;5.80;63.60;;;;;;7365954;19;20205;-70
2022/04/03 08:23:31;;;;;;;6.60;5.43;;;5.70;62.00;;;;;;7372349;19;20151;-70
2022/04/03 08:26:00;;;;;;;6.30;5.13;;;5.70;64.70;;;;;;7376160;19;20144;-72
2022/04/03 08:28:34;;;;;;;6.63;5.38;;;5.80;64.50;;;;;;7374793;19;20136;-73
2022/04/03 08:31:06;;;;;;;8.00;5.65;;;6.20;62.20;;;;;;7363672;19;20131;-73
2022/04/03 08:33:36;;;;;;;7.55;6.10;;;6.30;60.40;;;;;;7375859;19;20207;-70
2022/04/03 08:36:06;;;;;;;7.55;5.63;;;6.30;61.10;;;;;;7376310;19;20155;-70
2022/04/03 08:38:35;;;;;;;10.55;5.95;;;6.50;62.80;;;;;;7380320;19;20128;-70
2022/04/03 08:41:05;;;;;;;10.32;6.90;;;6.60;60.20;;;;;;7375894;19;20132;-70
2022/04/03 08:43:35;;;;;;;6.25;5.63;;;6.90;61.40;;;;;;7375569;19;20302;-71
2022/04/03 08:46:11;;;;;;;7.90;5.63;;;7.20;60.90;;;;;;7376529;19;20139;-70
2022/04/03 08:48:46;;;;;;;8.20;5.32;;;7.80;60.00;;;;;;7377770;19;20143;-71
2022/04/03 08:51:16;;;;;;;5.45;4.68;;;8.60;56.80;;;;;;7371430;19;20147;-71
2022/04/03 08:53:48;;;;;;;10.13;5.30;;;9.00;54.00;;;;;;7374531;19;20176;-71
2022/04/03 08:56:18;;;;;;;5.10;4.60;;;9.20;53.90;;;;;;7367540;19;20249;-71
2022/04/03 08:58:50;;;;;;;9.13;4.00;;;9.70;52.40;;;;;;7377691;19;20167;-71
2022/04/03 09:01:22;;;;;;;4.33;4.00;;;10.30;48.50;;;;;;7369828;19;20449;-71
2022/04/03 09:03:51;;;;;;;4.63;4.10;;;10.90;46.30;;;;;;7372699;19;20412;-71
2022/04/03 09:06:22;;;;;;;4.43;4.03;;;11.50;45.70;;;;;;7369315;19;20431;-72
2022/04/03 09:08:54;;;;;;;4.87;4.47;;;10.90;42.70;;;;;;7372206;19;20416;-71
2022/04/03 09:11:31;;;;;;;4.93;4.10;;;11.10;46.30;;;;;;7371011;19;20402;-72
2022/04/03 09:14:14;;;;;;;4.23;3.67;;;10.90;42.30;;;;;;7378149;19;20411;-71
2022/04/03 09:16:48;;;;;;;7.43;4.00;;;10.50;44.80;;;;;;7376208;19;20404;-72
2022/04/03 09:19:17;;;;;;;4.60;4.03;;;10.20;43.10;;;;;;7378260;19;21008;-71
2022/04/03 09:21:47;;;;;;;4.97;4.47;;;9.40;44.10;;;;;;7378508;19;20409;-71
2022/04/03 09:24:19;;;;;;;5.77;4.43;;;9.00;46.30;;;;;;7374530;19;20404;-71
2022/04/03 09:27:00;;;;;;;4.80;4.27;;;8.70;48.40;;;;;;7373394;19;20435;-71
2022/04/03 09:29:32;;;;;;;5.50;4.57;;;8.10;48.70;;;;;;7370748;19;20368;-71
2022/04/03 09:32:05;;;;;;;4.93;4.20;;;7.70;50.20;;;;;;7372314;19;20412;-71
2022/04/03 09:34:34;;;;;;;4.20;3.60;;;7.70;51.10;;;;;;7367029;19;20423;-71
2022/04/03 09:37:06;;;;;;;5.18;3.80;;;7.40;51.90;;;;;;7373043;19;20210;-73
2022/04/03 09:39:35;;;;;;;4.90;4.03;;;7.30;51.30;;;;;;7372576;19;20139;-76
2022/04/03 09:42:09;;;;;;;8.70;4.55;;;7.10;52.80;;;;;;7366409;19;20131;-78
2022/04/03 09:44:40;;;;;;;5.60;4.53;;;7.00;54.50;;;;;;7371875;19;20395;-75
2022/04/03 09:47:19;;;;;;;5.60;4.05;;;6.90;52.90;;;;;;7373465;19;20139;-74
2022/04/03 09:49:54;;;;;;;5.97;4.40;;;6.70;53.10;;;;;;7376725;19;20162;-72
2022/04/03 09:52:41;;;;;;;5.13;4.15;;;6.60;54.00;;;;;;7366047;19;20139;-72
2022/04/03 09:55:21;;;;;;;6.07;4.35;;;6.70;55.00;;;;;;7367978;19;20143;-72
2022/04/03 09:58:06;;;;;;;7.55;5.15;;;6.80;54.50;;;;;;7369628;19;20131;-72
2022/04/03 10:00:41;;;;;;;4.35;3.75;;;7.00;54.10;;;;;;7370773;19;20143;-74
2022/04/03 10:03:17;;;;;;;5.57;4.30;;;7.20;53.80;;;;;;7370852;19;20131;-75
2022/04/03 10:05:49;;;;;;;5.72;4.28;;;7.40;53.60;;;;;;7366182;19;20127;-74
2022/04/03 10:08:21;;;;;;;7.20;4.70;;;7.50;53.30;;;;;;7361060;19;20632;-75
2022/04/03 10:10:54;;;;;;;6.30;5.05;;;7.40;52.70;;;;;;7373106;19;20159;-74
2022/04/03 10:13:27;;;;;;;5.13;4.30;;;7.00;53.10;;;;;;7373295;19;20139;-74
2022/04/03 10:16:01;;;;;;;4.68;4.28;;;6.70;53.80;;;;;;7366011;19;20134;-75
2022/04/03 10:18:38;;;;;;;5.53;4.03;;;6.60;53.30;;;;;;7366511;19;20151;-75
2022/04/03 10:21:11;;;;;;;5.00;4.20;;;6.50;55.00;;;;;;7368471;19;20139;-73
2022/04/03 10:23:44;;;;;;;5.75;3.85;;;6.70;55.80;;;;;;7381313;19;20143;-73
2022/04/03 10:26:21;;;;;;;6.22;4.25;;;6.70;55.60;;;;;;7379695;19;20226;-74
2022/04/03 10:28:57;;;;;;;4.50;3.65;;;6.80;55.40;;;;;;7379248;19;20123;-73
2022/04/03 10:31:29;;;;;;;5.93;3.95;;;6.60;53.10;;;;;;7376213;19;20155;-71
2022/04/03 10:34:01;;;;;;;4.88;3.33;;;6.50;54.10;;;;;;7377449;19;20147;-71
2022/04/03 10:36:33;;;;;;;3.97;3.55;;;6.60;54.70;;;;;;7369285;19;20135;-71
2022/04/03 10:39:05;;;;;;;3.92;3.33;;;6.70;54.70;;;;;;7363686;19;21583;-71
2022/04/03 10:41:43;;;;;;;4.47;4.05;;;6.90;54.20;;;;;;7374271;19;20135;-71
2022/04/03 10:44:22;;;;;;;5.20;3.60;;;6.90;52.70;;;;;;7377897;19;20189;-71
2022/04/03 10:47:22;;;;;;;4.93;3.65;;;6.60;53.10;;;;;;7368807;19;20939;-70
2022/04/03 10:50:02;;;;;;;3.70;3.40;;;6.70;53.80;;;;;;7372403;19;20147;-71
2022/04/03 10:52:59;;;;;;;5.32;2.92;;;6.60;51.70;;;;;;7363551;19;20268;-71
2022/04/03 10:55:37;;;;;;;3.60;3.15;;;6.60;53.70;;;;;;7369235;19;20764;-71
2022/04/03 10:58:18;;;;;;;4.40;3.63;;;6.60;52.10;;;;;;7381352;19;20681;-71
2022/04/03 11:00:48;;;;;;;4.72;3.70;;;6.80;52.00;;;;;;7372475;19;20135;-71
2022/04/03 11:03:34;;;;;;;4.90;3.92;;;6.80;52.40;;;;;;7378306;19;20130;-71
2022/04/03 11:06:29;;;;;;;5.45;3.17;;;6.80;52.70;;;;;;7380169;19;20223;-71
2022/04/03 11:09:20;;;;;;;3.15;2.95;;;7.10;52.40;;;;;;7381905;19;20131;-72
2022/04/03 11:11:59;;;;;;;4.13;3.30;;;7.50;51.00;;;;;;7371210;19;20175;-71
2022/04/03 11:14:55;;;;;;;4.78;3.22;;;7.80;51.00;;;;;;7375214;19;20610;-71
2022/04/03 11:17:50;;;;;;;3.78;3.35;;;8.30;50.70;;;;;;7376163;19;20131;-71
2022/04/03 11:20:35;;;;;;;4.95;3.25;;;8.60;49.10;;;;;;7371296;19;20136;-72
2022/04/03 11:23:10;;;;;;;3.45;2.65;;;9.00;45.40;;;;;;7379182;19;20170;-72
2022/04/03 11:25:40;;;;;;;3.35;2.80;;;9.80;44.70;;;;;;7371556;19;20146;-72
2022/04/03 11:28:11;;;;;;;4.47;2.80;;;10.20;42.50;;;;;;7377684;19;20665;-72
2022/04/03 11:30:44;;;;;;;3.67;2.97;;;12.30;38.90;;;;;;7373944;19;20635;-73
2022/04/03 11:33:14;;;;;;;3.60;3.10;;;14.20;37.80;;;;;;7374673;19;20403;-72
2022/04/03 11:35:47;;;;;;;2.80;2.60;;;14.50;33.30;;;;;;7375033;19;20432;-72
2022/04/03 11:38:22;;;;;;;5.40;2.77;;;13.50;33.90;;;;;;7383389;19;20472;-72
2022/04/03 11:40:52;;;;;;;3.60;3.30;;;12.50;37.30;;;;;;7377124;19;20431;-73
2022/04/03 11:43:23;;;;;;;3.93;2.80;;;11.80;36.50;;;;;;7366918;19;20404;-71
2022/04/03 11:45:57;;;;;;;4.20;3.07;;;11.00;38.00;;;;;;7371321;19;20388;-71
2022/04/03 11:48:29;;;;;;;2.40;2.10;;;10.40;38.40;;;;;;7376760;19;20360;-71
2022/04/03 11:51:07;;;;;;;4.37;2.83;;;10.20;39.00;;;;;;7371577;19;20408;-71
2022/04/03 11:53:41;;;;;;;3.23;2.80;;;9.10;39.90;;;;;;7376028;19;20368;-71
2022/04/03 11:56:13;;;;;;;3.83;3.03;;;8.50;41.00;;;;;;7378567;19;21007;-71
2022/04/03 11:58:44;;;;;;;5.30;2.80;;;8.30;42.20;;;;;;7380241;19;20142;-71
2022/04/03 12:01:14;;;;;;;2.88;2.58;;;8.50;43.70;;;;;;7363452;19;20396;-71
2022/04/03 12:03:46;;;;;;;5.10;3.33;;;8.70;42.90;;;;;;7379009;19;20135;-71
2022/04/03 12:06:20;;;;;;;5.03;3.33;;;8.50;41.90;;;;;;7373208;19;20960;-71
2022/04/03 12:08:53;;;;;;;5.03;2.65;;;8.60;44.10;;;;;;7378321;19;20126;-71
2022/04/03 12:11:27;;;;;;;5.07;3.10;;;8.60;44.10;;;;;;7377802;19;20159;-71
2022/04/03 12:14:00;;;;;;;4.47;3.50;;;8.50;44.70;;;;;;7366216;19;20139;-75
2022/04/03 12:16:32;;;;;;;4.40;3.10;;;8.60;44.30;;;;;;7370850;19;20631;-74
2022/04/03 12:19:03;;;;;;;4.00;3.20;;;8.70;43.00;;;;;;7372408;19;20602;-75
2022/04/03 12:21:43;;;;;;;4.22;2.78;;;8.80;43.70;;;;;;7364585;19;20214;-74
2022/04/03 12:27:19;;;;;;;5.88;2.85;;;9.10;42.00;;;;;;7357266;19;20182;31
2022/04/03 12:29:54;;;;;;;4.53;3.07;;;9.20;42.90;;;;;;7316658;19;20273;-70
2022/04/03 12:32:35;;;;;;;4.37;3.00;;;9.00;44.90;;;;;;7355311;19;20411;-71
2022/04/03 12:35:09;;;;;;;5.95;2.78;;;8.60;45.90;;;;;;7356855;19;20808;-71
2022/04/03 12:37:43;;;;;;;3.35;2.90;;;8.30;46.00;;;;;;7370618;19;20138;-72
2022/04/03 12:40:17;;;;;;;4.10;3.70;;;8.00;46.20;;;;;;7372812;19;20249;-71
2022/04/03 12:42:48;;;;;;;3.08;2.63;;;7.60;46.80;;;;;;7364570;19;20256;-71
2022/04/03 12:45:24;;;;;;;4.43;2.90;;;7.20;46.70;;;;;;7366848;19;20142;-70
2022/04/03 12:48:02;;;;;;;10.38;3.90;;;7.00;46.40;;;;;;7364556;19;20141;-69
2022/04/03 12:50:38;;;;;;;6.05;3.50;;;6.70;48.30;;;;;;7358461;19;20639;-72
2022/04/03 12:53:14;;;;;;;4.82;3.00;;;6.60;49.90;;;;;;7362940;19;20150;-70
2022/04/03 12:55:52;;;;;;;3.65;3.30;;;6.50;51.00;;;;;;7346361;19;20144;-70
2022/04/03 12:58:25;;;;;;;5.53;4.05;;;6.50;50.80;;;;;;7360078;19;20146;-71
2022/04/03 13:01:06;;;;;;;5.07;3.53;;;6.40;50.60;;;;;;7360438;19;20503;-71
2022/04/03 13:03:37;;;;;;;4.20;3.80;;;6.50;52.00;;;;;;7364753;19;20142;-70
2022/04/03 13:06:11;;;;;;;4.07;3.63;;;6.50;52.70;;;;;;7364283;19;20235;-71
2022/04/03 13:08:53;;;;;;;3.75;3.10;;;6.40;50.80;;;;;;7355556;19;20756;-70
2022/04/03 13:11:30;;;;;;;4.57;3.97;;;6.40;52.50;;;;;;7351911;19;20237;-70
2022/04/03 13:14:19;;;;;;;3.88;3.00;;;6.40;52.80;;;;;;7358061;19;21984;-70
2022/04/03 13:16:56;;;;;;;3.63;3.33;;;6.30;50.80;;;;;;7334911;19;20199;-71
2022/04/03 13:19:29;;;;;;;9.10;3.38;;;6.10;52.30;;;;;;7367626;19;20138;-71
2022/04/03 13:22:05;;;;;;;5.93;3.35;;;6.00;53.40;;;;;;7355923;19;20139;-76